Time;durP1;ratioP1;P1;durP2;ratioP2;P2;SDS_P1;SDS_P2;PMS_P1;PMS_P2;Temp;Humidity;BMP_temperature;BMP_pressure;BME280_temperature;BME280_humidity;BME280_pressure;Samples;Min_cycle;Max_cycle;Signal;HPM_P1;HPM_P2
2023/01/10 00:01:09;;;;;;;;;;;;;;;-23.41;48.70;98176.56;6295958;28;19924;-67
2023/01/10 00:04:10;;;;;;;;;;;;;;;-23.35;48.88;98179.56;6295909;28;19924;-67
2023/01/10 00:07:16;;;;;;;;;;;;;;;-23.31;48.49;98183.22;6301020;28;19925;-67
2023/01/10 00:10:17;;;;;;;;;;;;;;;-23.23;49.22;98183.13;6300946;28;19924;-65
2023/01/10 00:13:24;;;;;;;;;;;;;;;-23.16;49.10;98190.38;6300648;28;19925;-66
2023/01/10 00:16:24;;;;;;;;;;;;;;;-23.08;48.93;98197.66;6300557;28;19924;-67
2023/01/10 00:19:26;;;;;;;;;;;;;;;-23.01;49.00;98204.88;6300534;28;19924;-66
2023/01/10 00:22:27;;;;;;;;;;;;;;;-22.96;48.71;98194.56;6300544;28;20317;-66
2023/01/10 00:25:28;;;;;;;;;;;;;;;-22.91;48.73;98195.78;6299599;28;19924;-66
2023/01/10 00:28:33;;;;;;;;;;;;;;;-22.84;49.06;98198.78;6300272;28;19924;-66
2023/01/10 00:31:34;;;;;;;;;;;;;;;-22.77;49.34;98201.94;6282661;28;20291;-67
2023/01/10 00:34:35;;;;;;;;;;;;;;;-22.68;48.58;98210.19;6299358;28;19931;-67
2023/01/10 00:37:37;;;;;;;;;;;;;;;-22.59;48.76;98206.72;6300235;28;19932;-66
2023/01/10 00:40:40;;;;;;;;;;;;;;;-22.48;48.59;98216.84;6300009;28;19925;-67
2023/01/10 00:43:56;;;;;;;;;;;;;;;-22.39;48.97;98219.22;6298571;28;20006;-66
2023/01/10 00:46:59;;;;;;;;;;;;;;;-22.30;48.92;98222.50;6300095;28;20416;-67
2023/01/10 00:50:07;;;;;;;;;;;;;;;-22.23;48.78;98234.72;6299987;28;19927;-67
2023/01/10 00:53:08;;;;;;;;;;;;;;;-22.14;49.19;98231.22;6298976;28;19924;-66
2023/01/10 00:56:09;;;;;;;;;;;;;;;-22.05;48.88;98239.44;6299542;28;19932;-66
2023/01/10 00:59:12;;;;;;;;;;;;;;;-21.99;49.33;98234.94;6282084;28;19931;-67
2023/01/10 01:02:18;;;;;;;;;;;;;;;-21.95;49.24;98241.97;6299480;28;19924;-67
2023/01/10 01:05:19;;;;;;;;;;;;;;;-21.89;49.05;98247.44;6299352;28;20357;-66
2023/01/10 01:08:21;;;;;;;;;;;;;;;-21.83;49.19;98257.94;6298652;28;19924;-67
2023/01/10 01:11:22;;;;;;;;;;;;;;;-21.80;49.27;98252.31;6299088;28;20018;-67
2023/01/10 01:14:25;;;;;;;;;;;;;;;-21.78;49.64;98260.81;6299416;28;20385;-67
2023/01/10 01:17:29;;;;;;;;;;;;;;;-21.74;48.97;98261.94;6297800;28;19931;-68
2023/01/10 01:20:31;;;;;;;;;;;;;;;-21.73;49.27;98266.16;6281423;28;20415;-67
2023/01/10 01:23:33;;;;;;;;;;;;;;;-21.70;49.13;98273.94;6298099;28;19928;-68
2023/01/10 01:26:34;;;;;;;;;;;;;;;-21.68;49.19;98272.41;6298382;28;20073;-67
2023/01/10 01:29:35;;;;;;;;;;;;;;;-21.64;49.83;98269.44;6298658;28;19924;-66
2023/01/10 01:32:36;;;;;;;;;;;;;;;-21.57;49.42;98276.66;6298487;28;20014;-66
2023/01/10 01:35:43;;;;;;;;;;;;;;;-21.54;49.43;98276.91;6298925;28;19920;-66
2023/01/10 01:38:44;;;;;;;;;;;;;;;-21.50;49.32;98283.91;6298787;28;20332;-66
2023/01/10 01:41:57;;;;;;;;;;;;;;;-21.46;49.84;98295.91;6297833;28;19921;-67
2023/01/10 01:45:11;;;;;;;;;;;;;;;-21.43;49.52;98311.13;6297579;28;20417;-67
2023/01/10 01:48:21;;;;;;;;;;;;;;;-21.36;49.30;98305.88;6297485;28;19924;-66
2023/01/10 01:51:25;;;;;;;;;;;;;;;-21.30;49.35;98313.84;6297554;28;20453;-67
2023/01/10 01:54:30;;;;;;;;;;;;;;;-21.23;49.62;98309.34;6296903;28;19932;-67
2023/01/10 01:57:34;;;;;;;;;;;;;;;-21.16;50.07;98314.09;6298322;28;20425;-67
2023/01/10 02:00:35;;;;;;;;;;;;;;;-21.10;50.64;98325.44;6297313;28;19924;-67
2023/01/10 02:03:36;;;;;;;;;;;;;;;-21.02;50.21;98331.06;6297127;28;20020;-67
2023/01/10 02:06:39;;;;;;;;;;;;;;;-20.94;49.88;98339.19;6298229;28;19932;-67
2023/01/10 02:09:44;;;;;;;;;;;;;;;-20.91;49.91;98335.31;6298002;28;20311;-67
2023/01/10 02:12:49;;;;;;;;;;;;;;;-20.85;50.37;98345.78;6297840;28;19924;-67
2023/01/10 02:15:50;;;;;;;;;;;;;;;-20.75;50.12;98361.53;6298168;28;19927;-66
2023/01/10 02:18:51;;;;;;;;;;;;;;;-20.68;50.47;98363.78;6296748;28;19928;-67
2023/01/10 02:22:13;;;;;;;;;;;;;;;-20.59;50.43;98369.50;6297684;28;19931;-66
2023/01/10 02:25:23;;;;;;;;;;;;;;;-20.52;50.24;98366.66;6297067;28;19924;-66
2023/01/10 02:28:36;;;;;;;;;;;;;;;-20.48;50.47;98378.69;6296692;28;20334;-68
2023/01/10 02:31:37;;;;;;;;;;;;;;;-20.45;50.62;98378.94;6297465;28;19931;-67
2023/01/10 02:34:52;;;;;;;;;;;;;;;-20.41;50.21;98380.91;6297261;28;20026;-67
2023/01/10 02:38:03;;;;;;;;;;;;;;;-20.36;50.85;98385.41;6297341;28;19931;-68
2023/01/10 02:41:21;;;;;;;;;;;;;;;-20.30;50.73;98389.25;6296304;28;19931;-67
2023/01/10 02:44:27;;;;;;;;;;;;;;;-20.23;50.34;98385.63;6296147;28;20070;-67
2023/01/10 02:47:35;;;;;;;;;;;;;;;-20.16;50.70;98392.84;6296902;28;20398;-67
2023/01/10 02:50:48;;;;;;;;;;;;;;;-20.14;50.32;98393.84;6295659;28;19933;-67
2023/01/10 02:53:57;;;;;;;;;;;;;;;-20.11;49.98;98401.59;6296244;28;19920;-66
2023/01/10 02:57:16;;;;;;;;;;;;;;;-20.08;50.16;98395.97;6295680;28;19958;-67
2023/01/10 03:00:47;;;;;;;;;;;;;;;-20.05;50.26;98399.56;6277827;28;20412;-67
2023/01/10 03:03:55;;;;;;;;;;;;;;;-20.02;50.09;98411.44;6274502;28;20057;-67
2023/01/10 03:07:05;;;;;;;;;;;;;;;-20.03;50.35;98414.72;6295428;28;19932;-66
2023/01/10 03:10:11;;;;;;;;;;;;;;;-20.05;50.53;98416.22;6295751;28;19931;-66
2023/01/10 03:13:22;;;;;;;;;;;;;;;-20.04;50.64;98416.31;6295824;28;19931;-67
2023/01/10 03:16:27;;;;;;;;;;;;;;;-20.04;50.74;98416.31;6295858;28;19924;-66
2023/01/10 03:19:34;;;;;;;;;;;;;;;-20.03;50.71;98425.63;6296359;28;19924;-67
2023/01/10 03:22:37;;;;;;;;;;;;;;;-20.03;50.89;98433.13;6295215;28;20309;-67
2023/01/10 03:25:42;;;;;;;;;;;;;;;-20.10;52.11;98428.38;6296215;28;19924;-66
2023/01/10 03:28:49;;;;;;;;;;;;;;;-20.13;51.49;98438.16;6295329;28;20512;-67
2023/01/10 03:31:56;;;;;;;;;;;;;;;-20.20;51.73;98435.94;6296113;28;20313;-66
2023/01/10 03:35:00;;;;;;;;;;;;;;;-20.31;51.87;98444.22;6296153;28;19974;-67
2023/01/10 03:38:07;;;;;;;;;;;;;;;-20.42;51.47;98460.91;6295532;28;19925;-68
2023/01/10 03:41:31;;;;;;;;;;;;;;;-20.55;51.70;98449.03;6277269;28;20401;-67
2023/01/10 03:44:49;;;;;;;;;;;;;;;-20.67;51.76;98451.44;6295374;28;19947;-67
2023/01/10 03:47:52;;;;;;;;;;;;;;;-20.77;52.26;98453.06;6295335;28;19931;-67
2023/01/10 03:50:57;;;;;;;;;;;;;;;-20.92;52.20;98452.72;6295853;28;19930;-67
2023/01/10 03:53:59;;;;;;;;;;;;;;;-21.07;51.94;98464.84;6294651;28;20386;-67
2023/01/10 03:57:00;;;;;;;;;;;;;;;-21.26;52.19;98469.06;6294677;28;19931;-66
2023/01/10 04:00:04;;;;;;;;;;;;;;;-21.47;52.36;98473.19;6295528;28;19924;-66
2023/01/10 04:03:08;;;;;;;;;;;;;;;-21.66;52.67;98480.75;6294157;28;19932;-66
2023/01/10 04:06:09;;;;;;;;;;;;;;;-21.81;53.13;98488.69;6294273;28;20365;-67
2023/01/10 04:09:13;;;;;;;;;;;;;;;-21.93;52.63;98489.25;6295576;28;19973;-67
2023/01/10 04:12:19;;;;;;;;;;;;;;;-22.04;53.20;98495.84;6295442;28;19925;-67
2023/01/10 04:15:20;;;;;;;;;;;;;;;-22.14;53.26;98508.25;6294323;28;19920;-68
2023/01/10 04:18:23;;;;;;;;;;;;;;;-22.22;53.34;98515.09;6295319;28;19925;-67
2023/01/10 04:21:24;;;;;;;;;;;;;;;-22.30;53.18;98516.94;6294586;28;20295;-67
2023/01/10 04:24:50;;;;;;;;;;;;;;;-22.34;52.79;98519.91;6292637;28;20298;-67
2023/01/10 04:27:54;;;;;;;;;;;;;;;-22.34;53.37;98524.03;6261755;28;19924;-67
2023/01/10 04:30:57;;;;;;;;;;;;;;;-22.35;53.37;98533.13;6294908;28;19925;-67
2023/01/10 04:34:01;;;;;;;;;;;;;;;-22.32;53.52;98543.38;6295110;28;20407;-66
2023/01/10 04:37:02;;;;;;;;;;;;;;;-22.23;53.70;98529.22;6295316;28;19944;-66
2023/01/10 04:40:08;;;;;;;;;;;;;;;-22.09;53.18;98542.00;6294893;28;19925;-67
2023/01/10 04:43:25;;;;;;;;;;;;;;;-21.94;53.11;98543.31;6291498;28;19936;-67
2023/01/10 04:46:29;;;;;;;;;;;;;;;-21.83;53.10;98557.59;6293988;28;19931;-67
2023/01/10 04:49:36;;;;;;;;;;;;;;;-21.77;52.66;98558.13;6295014;28;20527;-67
2023/01/10 04:52:42;;;;;;;;;;;;;;;-21.79;52.77;98564.63;6299180;28;20009;-66
2023/01/10 04:55:43;;;;;;;;;;;;;;;-21.81;52.41;98573.59;6296991;28;19925;-67
2023/01/10 04:58:47;;;;;;;;;;;;;;;-21.80;52.80;98567.84;6299429;28;19928;-67
2023/01/10 05:01:48;;;;;;;;;;;;;;;-21.76;52.61;98579.00;6298373;28;19920;-67
2023/01/10 05:04:49;;;;;;;;;;;;;;;-21.80;52.53;98587.84;6298741;28;20016;-67
2023/01/10 05:07:53;;;;;;;;;;;;;;;-21.82;52.22;98598.44;6299072;28;19924;-69
2023/01/10 05:10:54;;;;;;;;;;;;;;;-21.86;52.08;98601.41;6298261;28;20313;-67
2023/01/10 05:13:56;;;;;;;;;;;;;;;-21.80;52.02;98602.81;6298587;28;19931;-67
2023/01/10 05:16:57;;;;;;;;;;;;;;;-21.72;52.70;98615.13;6297940;28;19928;-66
2023/01/10 05:20:08;;;;;;;;;;;;;;;-21.64;52.73;98619.16;6298950;28;19934;-67
2023/01/10 05:23:09;;;;;;;;;;;;;;;-21.51;52.32;98626.94;6297576;28;19924;-68
2023/01/10 05:26:15;;;;;;;;;;;;;;;-21.42;52.64;98632.78;6280607;28;20283;-67
2023/01/10 05:29:21;;;;;;;;;;;;;;;-21.34;52.13;98638.38;6298664;28;20390;-68
2023/01/10 05:32:22;;;;;;;;;;;;;;;-21.28;51.98;98641.44;6297758;28;20012;-67
2023/01/10 05:35:26;;;;;;;;;;;;;;;-21.22;52.14;98646.94;6298949;28;19933;-67
2023/01/10 05:38:28;;;;;;;;;;;;;;;-21.15;51.91;98643.34;6298157;28;19924;-67
2023/01/10 05:41:29;;;;;;;;;;;;;;;-21.09;51.99;98641.34;6297575;28;19931;-67
2023/01/10 05:44:30;;;;;;;;;;;;;;;-21.05;51.75;98645.03;6298272;28;19964;-67
2023/01/10 05:47:31;;;;;;;;;;;;;;;-21.01;51.90;98657.03;6280349;28;19924;-66
2023/01/10 05:50:34;;;;;;;;;;;;;;;-20.99;51.83;98651.41;6297335;28;20309;-66
2023/01/10 05:53:35;;;;;;;;;;;;;;;-20.93;52.00;98661.94;6297203;28;19924;-67
2023/01/10 05:56:37;;;;;;;;;;;;;;;-20.90;51.63;98667.19;6297330;28;19924;-67
2023/01/10 05:59:39;;;;;;;;;;;;;;;-20.83;51.16;98665.22;6297368;28;20405;-66
2023/01/10 06:02:42;;;;;;;;;;;;;;;-20.77;51.77;98683.22;6280835;28;20390;-66
2023/01/10 06:05:43;;;;;;;;;;;;;;;-20.71;51.81;98679.66;6279850;28;20031;-66
2023/01/10 06:08:44;;;;;;;;;;;;;;;-20.62;51.83;98687.06;6296881;28;19925;-68
2023/01/10 06:11:47;;;;;;;;;;;;;;;-20.54;51.57;98686.06;6298093;28;19925;-67
2023/01/10 06:14:50;;;;;;;;;;;;;;;-20.45;51.47;98684.28;6297224;28;19924;-68
2023/01/10 06:17:54;;;;;;;;;;;;;;;-20.34;51.40;98691.84;6296736;28;19925;-68
2023/01/10 06:20:57;;;;;;;;;;;;;;;-20.22;51.01;98713.75;6297540;28;19925;-68
2023/01/10 06:23:59;;;;;;;;;;;;;;;-20.08;51.25;98722.41;6296651;28;19924;-66
2023/01/10 06:27:02;;;;;;;;;;;;;;;-19.96;51.16;98735.94;6296780;28;19932;-66
2023/01/10 06:30:03;;;;;;;;;;;;;;;-19.83;50.95;98729.47;6296625;28;19925;-68
2023/01/10 06:33:05;;;;;;;;;;;;;;;-19.71;51.65;98735.47;6295252;28;20305;-68
2023/01/10 06:36:09;;;;;;;;;;;;;;;-19.58;50.86;98738.19;6296729;28;20426;-66
2023/01/10 06:39:12;;;;;;;;;;;;;;;-19.42;50.78;98736.91;6296190;28;20069;-67
2023/01/10 06:42:13;;;;;;;;;;;;;;;-19.31;51.01;98742.03;6296351;28;19974;-68
2023/01/10 06:45:13;;;;;;;;;;;;;;;-19.20;51.15;98742.91;6296417;28;19924;-66
2023/01/10 06:48:17;;;;;;;;;;;;;;;-19.10;50.84;98740.38;6297088;28;19925;-67
2023/01/10 06:51:20;;;;;;;;;;;;;;;-18.99;50.43;98742.84;6296772;28;19924;-67
2023/01/10 06:54:21;;;;;;;;;;;;;;;-18.92;50.71;98750.13;6296389;28;20011;-67
2023/01/10 06:57:27;;;;;;;;;;;;;;;-18.82;50.72;98752.59;6295825;28;19929;-68
2023/01/10 07:00:37;;;;;;;;;;;;;;;-18.63;50.32;98760.78;6296772;28;20350;-67
2023/01/10 07:03:45;;;;;;;;;;;;;;;-18.48;50.47;98760.22;6296278;28;20206;-68
2023/01/10 07:06:50;;;;;;;;;;;;;;;-18.39;50.23;98768.47;6296066;28;20409;-68
2023/01/10 07:09:51;;;;;;;;;;;;;;;-18.30;50.52;98768.31;6295657;28;19932;-68
2023/01/10 07:12:56;;;;;;;;;;;;;;;-18.23;49.80;98768.88;6294683;28;20017;-67
2023/01/10 07:16:03;;;;;;;;;;;;;;;-18.09;50.04;98766.56;6295209;28;20019;-67
2023/01/10 07:19:16;;;;;;;;;;;;;;;-17.99;49.90;98758.97;6296245;28;19928;-67
2023/01/10 07:22:19;;;;;;;;;;;;;;;-17.83;49.92;98761.88;6295643;28;19924;-68
2023/01/10 07:25:24;;;;;;;;;;;;;;;-17.32;49.96;98769.00;6296255;28;20441;-68
2023/01/10 07:28:30;;;;;;;;;;;;;;;-13.78;47.62;98752.94;6296165;28;20451;-68
2023/01/10 07:31:33;;;;;;;;;;;;;;;-7.85;39.70;98758.97;6295363;28;20025;-67
2023/01/10 07:34:37;;;;;;;;;;;;;;;-2.52;34.32;98769.38;6296234;28;19924;-67
2023/01/10 07:37:45;;;;;;;;;;;;;;;1.45;30.30;98777.56;6296264;28;20398;-67
2023/01/10 07:40:47;;;;;;;;;;;;;;;4.11;25.46;98769.78;6296059;28;19932;-68
2023/01/10 07:43:51;;;;;;;;;;;;;;;6.13;26.93;98776.81;6294740;28;19931;-69
2023/01/10 07:46:52;;;;;;;;;;;;;;;7.87;25.42;98772.47;6295102;28;20393;-68
2023/01/10 07:49:54;;;;;;;;;;;;;;;9.23;24.42;98770.69;6295391;28;19927;-69
2023/01/10 07:52:57;;;;;;;;;;;;;;;10.37;26.32;98772.41;6295696;28;19932;-67
2023/01/10 07:56:05;;;;;;;;;;;;;;;11.31;18.76;98773.41;6294572;28;19925;-68
2023/01/10 07:59:11;;;;;;;;;;;;;;;11.34;23.68;98775.09;6295784;28;19924;-68
2023/01/10 08:02:14;;;;;;;;;;;;;;;11.77;23.01;98778.69;6295609;28;19924;-68
2023/01/10 08:05:21;;;;;;;;;;;;;;;12.30;23.19;98775.72;6295795;28;19924;-69
2023/01/10 08:08:25;;;;;;;;;;;;;;;11.94;24.79;98789.47;6294844;28;20466;-68
2023/01/10 08:11:28;;;;;;;;;;;;;;;10.70;22.83;98792.31;6295251;28;20325;-68
2023/01/10 08:14:35;;;;;;;;;;;;;;;9.89;22.14;98787.06;6295808;28;19924;-68
2023/01/10 08:17:39;;;;;;;;;;;;;;;9.96;22.57;98798.25;6295115;28;19932;-67
2023/01/10 08:20:45;;;;;;;;;;;;;;;9.65;21.04;98799.19;6295503;28;19925;-68
2023/01/10 08:23:48;;;;;;;;;;;;;;;9.53;18.74;98794.31;6295556;28;19931;-68
2023/01/10 08:26:51;;;;;;;;;;;;;;;9.63;17.11;98795.75;6298539;28;20019;-69
2023/01/10 08:29:52;;;;;;;;;;;;;;;9.63;18.30;98782.63;6299686;28;19924;-68
2023/01/10 08:32:55;;;;;;;;;;;;;;;9.04;17.77;98785.22;6299812;28;19929;-68
2023/01/10 08:36:13;;;;;;;;;;;;;;;8.46;17.79;98788.50;6283745;28;19924;-68
2023/01/10 08:39:16;;;;;;;;;;;;;;;8.94;18.72;98790.72;6299994;28;19925;-68
2023/01/10 08:42:22;;;;;;;;;;;;;;;9.61;18.82;98798.41;6299761;28;19924;-67
2023/01/10 08:45:28;;;;;;;;;;;;;;;8.19;18.85;98778.69;6299953;28;19925;-68
2023/01/10 08:48:32;;;;;;;;;;;;;;;6.81;19.84;98789.56;6299891;28;19925;-68
2023/01/10 08:51:39;;;;;;;;;;;;;;;5.69;18.44;98809.69;6299740;28;19925;-67
2023/01/10 08:54:48;;;;;;;;;;;;;;;4.57;18.92;98796.25;6299328;28;20301;-68
2023/01/10 08:57:53;;;;;;;;;;;;;;;2.81;22.63;98810.41;6298481;28;19924;-69
2023/01/10 09:00:55;;;;;;;;;;;;;;;0.67;23.89;98796.28;6281251;28;19924;-69
2023/01/10 09:16:31;;;;;;;;;;;;;;;-6.91;29.42;98809.28;6173437;28;19926;-69
2023/01/10 09:20:15;;;;;;;;;;;;;;;-7.66;29.45;98791.22;6162443;28;19934;-67
2023/01/10 09:23:30;;;;;;;;;;;;;;;-8.13;31.21;98803.91;6297568;28;19974;-68
2023/01/10 09:26:33;;;;;;;;;;;;;;;-8.52;31.03;98799.78;6297869;28;19920;-68
2023/01/10 09:29:59;;;;;;;;;;;;;;;-9.10;30.78;98810.97;6298210;28;20598;-68
2023/01/10 09:33:04;;;;;;;;;;;;;;;-9.79;31.33;98820.63;6298087;28;19943;-69
2023/01/10 09:36:05;;;;;;;;;;;;;;;-10.30;31.41;98827.56;6297673;28;19925;-68
2023/01/10 09:39:08;;;;;;;;;;;;;;;-10.62;31.51;98821.78;6297880;28;20278;-68
2023/01/10 09:42:48;;;;;;;;;;;;;;;-10.90;32.02;98835.69;6297925;28;19925;-68
2023/01/10 09:45:51;;;;;;;;;;;;;;;-11.09;32.00;98833.88;6173415;28;19933;-70
2023/01/10 09:49:30;;;;;;;;;;;;;;;-11.22;31.88;98833.16;6173421;28;19926;-70
2023/01/10 09:52:40;;;;;;;;;;;;;;;-11.23;32.08;98831.41;6221491;28;19944;-68
2023/01/10 09:55:42;;;;;;;;;;;;;;;-11.19;32.52;98840.94;6221922;28;19929;-68
2023/01/10 09:58:44;;;;;;;;;;;;;;;-11.03;32.14;98833.31;6298329;28;20406;-68
2023/01/10 10:01:52;;;;;;;;;;;;;;;-11.10;31.96;98846.47;6298022;28;19931;-68
2023/01/10 10:05:03;;;;;;;;;;;;;;;-11.29;33.07;98854.84;6298276;28;19924;-67
2023/01/10 10:08:07;;;;;;;;;;;;;;;-11.44;32.93;98854.00;6297128;28;19966;-68
2023/01/10 10:11:09;;;;;;;;;;;;;;;-11.50;33.16;98836.78;6298036;28;19924;-68
2023/01/10 10:14:32;;;;;;;;;;;;;;;-11.70;33.11;98842.47;6298060;28;19925;-69
2023/01/10 10:17:42;;;;;;;;;;;;;;;-11.65;33.30;98841.91;6296711;28;20390;-68
2023/01/10 10:20:52;;;;;;;;;;;;;;;-11.57;33.27;98842.34;6297763;28;19948;-69
2023/01/10 10:24:04;;;;;;;;;;;;;;;-11.72;33.36;98841.50;6296653;28;20406;-68
2023/01/10 10:27:15;;;;;;;;;;;;;;;-11.83;33.80;98838.38;6296882;28;19925;-69
2023/01/10 10:30:26;;;;;;;;;;;;;;;-11.85;33.90;98851.00;6296874;28;19924;-68
2023/01/10 10:33:36;;;;;;;;;;;;;;;-12.06;34.00;98844.78;6296392;28;19924;-68
2023/01/10 10:36:46;;;;;;;;;;;;;;;-12.09;34.53;98865.78;6297379;28;19924;-68
2023/01/10 10:39:52;;;;;;;;;;;;;;;-12.23;34.49;98870.13;6297131;28;19939;-68
2023/01/10 10:42:55;;;;;;;;;;;;;;;-12.40;35.11;98865.72;6296084;28;20430;-68
2023/01/10 10:46:01;;;;;;;;;;;;;;;-12.59;34.99;98855.34;6297295;28;20386;-68
2023/01/10 10:49:17;;;;;;;;;;;;;;;-12.97;35.19;98857.38;6295352;28;20309;-68
2023/01/10 10:52:23;;;;;;;;;;;;;;;-13.23;35.66;98865.09;6296344;28;19925;-69
2023/01/10 10:55:32;;;;;;;;;;;;;;;-13.48;35.89;98861.13;6296771;28;19924;-68
2023/01/10 10:58:38;;;;;;;;;;;;;;;-13.59;36.09;98868.03;6296791;28;20001;-69
2023/01/10 11:01:42;;;;;;;;;;;;;;;-13.60;36.24;98866.31;6295916;28;20007;-68
2023/01/10 11:04:46;;;;;;;;;;;;;;;-13.80;36.48;98880.25;6295582;28;20416;-68
2023/01/10 11:07:48;;;;;;;;;;;;;;;-14.10;36.51;98885.94;6295912;28;19928;-68
2023/01/10 11:10:54;;;;;;;;;;;;;;;-14.30;36.49;98877.06;6296456;28;19924;-68
2023/01/10 11:13:59;;;;;;;;;;;;;;;-14.51;36.81;98891.75;6296407;28;20293;-69
2023/01/10 11:17:16;;;;;;;;;;;;;;;-14.63;37.21;98904.50;6295361;28;19925;-69
2023/01/10 11:20:18;;;;;;;;;;;;;;;-14.71;37.26;98888.81;6296576;28;20337;-69
2023/01/10 11:23:24;;;;;;;;;;;;;;;-14.59;36.93;98898.84;6295225;28;19924;-69
2023/01/10 11:26:39;;;;;;;;;;;;;;;-14.64;37.21;98912.81;6295419;28;20085;-68
2023/01/10 11:29:49;;;;;;;;;;;;;;;-14.61;37.54;98907.97;6277509;28;19930;-69
2023/01/10 11:32:55;;;;;;;;;;;;;;;-14.64;37.21;98907.78;6294754;28;19920;-70
2023/01/10 11:36:01;;;;;;;;;;;;;;;-14.73;37.41;98909.69;6295265;28;20382;-70
2023/01/10 11:39:13;;;;;;;;;;;;;;;-14.78;38.00;98906.00;6295976;28;20456;-69
2023/01/10 11:42:23;;;;;;;;;;;;;;;-14.82;38.10;98909.97;6295021;28;20393;-69
2023/01/10 11:45:34;;;;;;;;;;;;;;;-14.86;37.92;98922.28;6294322;28;19952;-70
2023/01/10 11:48:43;;;;;;;;;;;;;;;-14.86;38.14;98918.09;6295273;28;20341;-69
2023/01/10 11:51:55;;;;;;;;;;;;;;;-15.10;38.68;98924.91;6295767;28;19924;-68
2023/01/10 11:55:00;;;;;;;;;;;;;;;-15.19;38.85;98930.22;6295551;28;20378;-69
2023/01/10 11:58:10;;;;;;;;;;;;;;;-15.17;38.88;98921.13;6295909;28;19939;-68
2023/01/10 12:01:37;;;;;;;;;;;;;;;-15.24;39.09;98929.03;6301335;28;20421;-69
2023/01/10 12:04:42;;;;;;;;;;;;;;;-15.23;38.97;98942.53;6300238;28;19924;-69
2023/01/10 12:08:05;;;;;;;;;;;;;;;-15.41;39.15;98925.34;6303949;28;19924;-69
2023/01/10 12:11:12;;;;;;;;;;;;;;;-15.43;39.65;98947.06;6286392;28;20519;-70
2023/01/10 12:14:18;;;;;;;;;;;;;;;-15.51;40.08;98937.22;6303077;28;19924;-68
2023/01/10 12:17:22;;;;;;;;;;;;;;;-15.39;39.35;98933.91;6302720;28;19920;-69
2023/01/10 12:20:27;;;;;;;;;;;;;;;-15.54;39.91;98937.88;6303744;28;19924;-70
2023/01/10 12:23:29;;;;;;;;;;;;;;;-15.43;39.84;98936.97;6303441;28;19924;-71
2023/01/10 12:26:33;;;;;;;;;;;;;;;-15.50;39.93;98934.81;6303769;28;19924;-71
2023/01/10 12:29:43;;;;;;;;;;;;;;;-15.36;39.92;98942.47;6302785;28;19924;-71
2023/01/10 12:32:47;;;;;;;;;;;;;;;-15.51;40.40;98938.13;6303772;28;19924;-71
2023/01/10 12:35:52;;;;;;;;;;;;;;;-15.55;40.51;98935.25;6303075;28;19932;-71
2023/01/10 12:39:15;;;;;;;;;;;;;;;-15.62;40.52;98947.44;6285405;28;19924;-71
2023/01/10 12:45:52;;;;;;;;;;;;;;;-15.72;40.71;98949.25;6302813;28;19925;-71
2023/01/10 12:49:11;;;;;;;;;;;;;;;-15.76;40.70;98944.78;6302882;28;19934;-69
2023/01/10 12:52:22;;;;;;;;;;;;;;;-15.83;41.01;98922.38;6303378;28;20376;-68
2023/01/10 12:55:27;;;;;;;;;;;;;;;-15.99;41.12;98933.03;6302049;28;19947;-69
2023/01/10 12:58:46;;;;;;;;;;;;;;;-16.20;41.38;98944.97;6302929;28;19924;-67
2023/01/10 13:01:55;;;;;;;;;;;;;;;-16.40;41.54;98946.91;6284721;28;19932;-67
2023/01/10 13:04:59;;;;;;;;;;;;;;;-16.52;41.78;98967.06;6302566;28;19925;-68
2023/01/10 13:08:09;;;;;;;;;;;;;;;-16.64;42.00;98985.41;6303188;28;19924;-68
2023/01/10 13:11:14;;;;;;;;;;;;;;;-16.84;42.01;98991.50;6301172;28;19968;-68
2023/01/10 13:14:21;;;;;;;;;;;;;;;-17.03;42.32;98984.22;6298025;28;20414;-68
2023/01/10 13:17:31;;;;;;;;;;;;;;;-17.21;42.66;98979.56;6298440;28;19974;-68
2023/01/10 13:21:13;;;;;;;;;;;;;;;-17.33;43.00;98976.06;6297949;28;19929;-68
2023/01/10 13:24:22;;;;;;;;;;;;;;;-17.45;43.00;98982.69;6266508;28;20093;-68
2023/01/10 13:32:18;;;;;;;;;;;;;;;-17.55;43.74;98980.19;6284773;28;19928;-69
2023/01/10 13:35:56;;;;;;;;;;;;;;;-17.66;44.03;98987.81;6297375;28;20454;-69
2023/01/10 13:47:42;;;;;;;;;;;;;;;-18.02;43.68;98985.81;6294917;28;19924;-67
2023/01/10 13:55:38;;;;;;;;;;;;;;;-18.25;44.21;98983.97;6298253;28;19932;-68
2023/01/10 14:02:27;;;;;;;;;;;;;;;-18.32;46.41;99006.81;6298302;28;19966;-68
2023/01/10 14:05:31;;;;;;;;;;;;;;;-18.38;44.77;99008.84;6298388;28;20053;-68
2023/01/10 14:08:35;;;;;;;;;;;;;;;-18.41;44.83;99008.59;6298340;28;20073;-68
2023/01/10 14:11:41;;;;;;;;;;;;;;;-18.47;44.88;99008.97;6297991;28;20425;-68
2023/01/10 14:14:49;;;;;;;;;;;;;;;-18.53;45.32;99012.63;6280054;28;20394;-69
2023/01/10 14:17:55;;;;;;;;;;;;;;;-18.61;45.29;99030.44;6280226;28;19964;-68
2023/01/10 14:21:00;;;;;;;;;;;;;;;-18.71;46.32;99037.06;6280008;28;19932;-67
2023/01/10 14:24:04;;;;;;;;;;;;;;;-18.78;45.69;99040.75;6278513;28;20015;-68
2023/01/10 14:27:15;;;;;;;;;;;;;;;-18.81;45.74;99043.88;6297740;28;19924;-68
2023/01/10 14:30:31;;;;;;;;;;;;;;;-18.88;46.04;99035.69;6297373;28;20030;-69
2023/01/10 14:33:35;;;;;;;;;;;;;;;-18.92;45.47;99031.19;6297279;28;20080;-68
2023/01/10 14:36:51;;;;;;;;;;;;;;;-19.01;45.03;99038.81;6297561;28;20357;-68
2023/01/10 14:39:55;;;;;;;;;;;;;;;-19.16;45.65;99050.97;6294931;28;19977;-68
2023/01/10 14:43:00;;;;;;;;;;;;;;;-19.23;45.21;99063.72;6279187;28;19925;-68
2023/01/10 14:46:10;;;;;;;;;;;;;;;-19.28;45.75;99068.31;6297088;28;19964;-68
2023/01/10 14:49:27;;;;;;;;;;;;;;;-19.31;45.74;99069.69;6278254;28;19925;-68
2023/01/10 14:52:48;;;;;;;;;;;;;;;-19.35;45.50;99077.72;6278902;28;19924;-67
2023/01/10 14:56:00;;;;;;;;;;;;;;;-19.35;45.32;99082.75;6308990;28;19924;-67
2023/01/10 15:03:08;;;;;;;;;;;;;;;-19.27;45.36;99096.81;6319688;28;19923;-68
2023/01/10 15:06:10;;;;;;;;;;;;;;;-19.26;45.79;99089.41;6321008;28;19924;-69
2023/01/10 15:09:13;;;;;;;;;;;;;;;-19.27;45.46;99086.78;6321895;28;20352;-67
2023/01/10 15:12:19;;;;;;;;;;;;;;;-19.31;45.73;99094.78;6320613;28;19985;-67
2023/01/10 15:15:26;;;;;;;;;;;;;;;-19.29;46.19;99103.34;6321568;28;20291;-68
2023/01/10 15:18:32;;;;;;;;;;;;;;;-19.27;45.95;99097.69;6320264;28;19930;-68
2023/01/10 15:21:42;;;;;;;;;;;;;;;-19.26;45.38;99098.56;6321756;28;19924;-67
2023/01/10 15:24:56;;;;;;;;;;;;;;;-19.27;46.46;99107.72;6321373;28;19931;-67
2023/01/10 15:28:01;;;;;;;;;;;;;;;-19.31;45.50;99113.22;6321334;28;20397;-68
2023/01/10 15:31:06;;;;;;;;;;;;;;;-19.37;45.64;99115.19;6321484;28;20018;-68
2023/01/10 15:34:13;;;;;;;;;;;;;;;-19.44;45.61;99124.56;6320299;28;20042;-68
2023/01/10 15:37:44;;;;;;;;;;;;;;;-19.55;45.24;99134.53;6319531;28;20053;-67
2023/01/10 15:41:33;;;;;;;;;;;;;;;-19.59;45.80;99135.00;6292434;28;19951;-68
2023/01/10 15:44:43;;;;;;;;;;;;;;;-19.62;46.08;99137.25;6293326;28;20013;-68
2023/01/10 15:47:46;;;;;;;;;;;;;;;-19.60;46.00;99143.28;6276760;28;20412;-68
2023/01/10 15:50:54;;;;;;;;;;;;;;;-19.63;45.65;99153.03;6276058;28;19924;-69
2023/01/10 15:54:30;;;;;;;;;;;;;;;-19.59;45.57;99166.72;6292055;28;19931;-68
2023/01/10 15:58:08;;;;;;;;;;;;;;;-19.53;46.14;99163.16;6243258;28;19989;-68
2023/01/10 16:01:15;;;;;;;;;;;;;;;-19.57;45.62;99166.09;6243283;28;20423;-67
2023/01/10 16:04:17;;;;;;;;;;;;;;;-19.61;45.38;99168.19;6227224;28;19932;-68
2023/01/10 16:07:23;;;;;;;;;;;;;;;-19.65;45.63;99167.09;6243525;28;20023;-68
2023/01/10 16:10:26;;;;;;;;;;;;;;;-19.67;45.80;99176.09;6234691;28;19959;-69
2023/01/10 16:13:32;;;;;;;;;;;;;;;-19.69;45.73;99185.13;6277916;28;20290;-69
2023/01/10 16:16:35;;;;;;;;;;;;;;;-19.72;46.91;99179.84;6295547;28;19979;-68
2023/01/10 16:19:39;;;;;;;;;;;;;;;-19.75;46.52;99182.94;6278116;28;19924;-69
2023/01/10 16:22:43;;;;;;;;;;;;;;;-19.71;46.23;99181.59;6277319;28;19924;-68
2023/01/10 16:25:48;;;;;;;;;;;;;;;-19.73;46.12;99188.06;6277312;28;19981;-67
2023/01/10 16:28:51;;;;;;;;;;;;;;;-19.79;46.22;99188.41;6295478;28;19931;-68
2023/01/10 16:31:58;;;;;;;;;;;;;;;-19.81;46.37;99196.53;6295340;28;20013;-68
2023/01/10 16:35:02;;;;;;;;;;;;;;;-19.84;46.20;99198.75;6277504;28;19931;-67
2023/01/10 16:38:07;;;;;;;;;;;;;;;-19.86;46.07;99210.31;6295388;28;19931;-68
2023/01/10 16:44:32;;;;;;;;;;;;;;;-19.89;46.48;99220.06;6293733;28;19924;-68
2023/01/10 16:47:35;;;;;;;;;;;;;;;-19.85;46.40;99217.06;6297686;28;19924;-67